createdAt,value
2018-12-20T00:00:14.795Z,-2.70
2018-12-20T00:02:43.541Z,-2.70
2018-12-20T00:05:12.300Z,-2.70
2018-12-20T00:07:41.159Z,-2.70
2018-12-20T00:10:10.198Z,-2.80
2018-12-20T00:12:38.935Z,-2.70
2018-12-20T00:15:07.679Z,-2.70
2018-12-20T00:17:41.988Z,-2.70
2018-12-20T00:20:10.903Z,-2.70
2018-12-20T00:22:39.703Z,-2.70
2018-12-20T00:25:08.761Z,-2.70
2018-12-20T00:27:37.470Z,-2.70
2018-12-20T00:30:06.598Z,-2.70
2018-12-20T00:32:35.381Z,-2.70
2018-12-20T00:35:04.147Z,-2.70
2018-12-20T00:37:32.855Z,-2.70
2018-12-20T00:40:06.391Z,-2.70
2018-12-20T00:42:32.352Z,-2.70
2018-12-20T00:45:01.207Z,-2.70
2018-12-20T00:47:29.905Z,-2.70
2018-12-20T00:49:58.770Z,-2.70
2018-12-20T00:52:27.477Z,-2.70
2018-12-20T00:54:56.068Z,-2.70
2018-12-20T00:57:25.026Z,-2.70
2018-12-20T00:59:53.974Z,-2.70
2018-12-20T01:02:22.723Z,-2.70
2018-12-20T01:04:51.313Z,-2.60
2018-12-20T01:07:20.056Z,-2.60
2018-12-20T01:09:48.819Z,-2.60
2018-12-20T01:12:17.576Z,-2.60
2018-12-20T01:14:46.238Z,-2.60
2018-12-20T01:17:14.839Z,-2.60
2018-12-20T01:19:43.518Z,-2.60
2018-12-20T01:22:12.226Z,-2.60
2018-12-20T01:24:40.951Z,-2.60
2018-12-20T01:27:09.768Z,-2.60
2018-12-20T01:29:38.430Z,-2.60
2018-12-20T01:32:07.022Z,-2.60
2018-12-20T01:34:35.591Z,-2.60
2018-12-20T01:37:04.539Z,-2.70
2018-12-20T01:39:33.296Z,-2.60
2018-12-20T01:42:02.100Z,-2.60
2018-12-20T01:44:30.747Z,-2.70
2018-12-20T01:46:59.513Z,-2.70
2018-12-20T01:49:28.152Z,-2.70
2018-12-20T01:51:56.845Z,-2.70
2018-12-20T01:54:47.838Z,-2.60
2018-12-20T01:57:16.562Z,-2.60
2018-12-20T01:59:45.165Z,-2.60
2018-12-20T02:02:13.996Z,-2.60
2018-12-20T02:04:42.674Z,-2.60
2018-12-20T02:07:11.302Z,-2.60
2018-12-20T02:09:39.960Z,-2.60
2018-12-20T02:12:08.761Z,-2.60
2018-12-20T02:14:37.358Z,-2.60
2018-12-20T02:17:05.940Z,-2.60
2018-12-20T02:19:34.593Z,-2.60
2018-12-20T02:22:03.287Z,-2.60
2018-12-20T02:24:32.079Z,-2.60
2018-12-20T02:27:00.849Z,-2.60
2018-12-20T02:29:33.293Z,-2.60
2018-12-20T02:32:02.029Z,-2.60
2018-12-20T02:34:30.605Z,-2.60
2018-12-20T02:36:59.170Z,-2.60
2018-12-20T02:39:27.772Z,-2.60
2018-12-20T02:41:56.361Z,-2.60
2018-12-20T02:44:25.458Z,-2.60
2018-12-20T02:46:54.308Z,-2.60
2018-12-20T02:49:23.031Z,-2.60
2018-12-20T02:51:51.722Z,-2.60
2018-12-20T02:54:20.665Z,-2.50
2018-12-20T02:56:49.399Z,-2.50
2018-12-20T02:59:18.143Z,-2.50
2018-12-20T03:01:46.786Z,-2.60
2018-12-20T03:04:15.408Z,-2.60
2018-12-20T03:06:44.076Z,-2.50
2018-12-20T03:09:12.680Z,-2.50
2018-12-20T03:11:41.275Z,-2.50
2018-12-20T03:14:09.992Z,-2.50
2018-12-20T03:16:38.701Z,-2.50
2018-12-20T03:19:07.505Z,-2.50
2018-12-20T03:21:36.192Z,-2.50
2018-12-20T03:24:05.096Z,-2.50
2018-12-20T03:26:33.819Z,-2.50
2018-12-20T03:29:02.533Z,-2.50
2018-12-20T03:31:31.284Z,-2.50
2018-12-20T03:34:00.132Z,-2.50
2018-12-20T03:36:28.886Z,-2.50
2018-12-20T03:38:57.782Z,-2.50
2018-12-20T03:41:26.537Z,-2.50
2018-12-20T03:43:55.274Z,-2.50
2018-12-20T03:46:24.003Z,-2.40
2018-12-20T03:48:52.687Z,-2.40
2018-12-20T03:51:21.441Z,-2.50
2018-12-20T03:53:50.187Z,-2.40
2018-12-20T03:56:19.067Z,-2.40
2018-12-20T03:58:47.995Z,-2.40
2018-12-20T04:01:16.725Z,-2.40
2018-12-20T04:03:45.378Z,-2.50
2018-12-20T04:06:14.268Z,-2.40
2018-12-20T04:08:43.194Z,-2.40
2018-12-20T04:11:12.033Z,-2.40
2018-12-20T04:13:41.579Z,-2.40
2018-12-20T04:16:10.200Z,-2.40
2018-12-20T04:18:38.785Z,-2.40
2018-12-20T04:21:07.375Z,-2.40
2018-12-20T04:23:38.145Z,-2.30
2018-12-20T04:26:06.795Z,-2.40
2018-12-20T04:28:35.602Z,-2.30
2018-12-20T04:31:04.327Z,-2.40
2018-12-20T04:33:32.996Z,-2.30
2018-12-20T04:36:01.927Z,-2.40
2018-12-20T04:38:30.589Z,-2.40
2018-12-20T04:40:59.454Z,-2.30
2018-12-20T04:43:28.167Z,-2.30
2018-12-20T04:45:56.789Z,-2.30
2018-12-20T04:48:25.779Z,-2.40
2018-12-20T04:50:54.439Z,-2.40
2018-12-20T04:53:23.052Z,-2.30
2018-12-20T04:55:51.618Z,-2.30
2018-12-20T04:58:20.333Z,-2.30
2018-12-20T05:00:49.019Z,-2.30
2018-12-20T05:03:17.627Z,-2.40
2018-12-20T05:05:46.337Z,-2.30
2018-12-20T05:08:15.245Z,-2.40
2018-12-20T05:10:44.291Z,-2.30
2018-12-20T05:13:13.144Z,-2.30
2018-12-20T05:15:41.886Z,-2.30
2018-12-20T05:18:10.771Z,-2.30
2018-12-20T05:20:39.860Z,-2.30
2018-12-20T05:23:08.558Z,-2.30
2018-12-20T05:25:37.275Z,-2.30
2018-12-20T05:28:06.035Z,-2.30
2018-12-20T05:30:34.651Z,-2.20
2018-12-20T05:33:03.278Z,-2.30
2018-12-20T05:35:31.877Z,-2.30
2018-12-20T05:38:00.511Z,-2.30
2018-12-20T05:40:29.125Z,-2.30
2018-12-20T05:42:57.737Z,-2.30
2018-12-20T05:45:26.481Z,-2.30
2018-12-20T05:47:55.219Z,-2.30
2018-12-20T05:50:23.962Z,-2.30
2018-12-20T05:52:52.628Z,-2.30
2018-12-20T05:55:25.571Z,-2.30
2018-12-20T05:57:54.270Z,-2.30
2018-12-20T06:00:22.904Z,-2.30
2018-12-20T06:02:51.679Z,-2.30
2018-12-20T06:05:20.621Z,-2.30
2018-12-20T06:07:49.355Z,-2.30
2018-12-20T06:10:17.971Z,-2.30
2018-12-20T06:12:47.071Z,-2.30
2018-12-20T06:15:15.791Z,-2.40
2018-12-20T06:17:44.417Z,-2.40
2018-12-20T06:20:13.242Z,-2.40
2018-12-20T06:22:42.028Z,-2.30
2018-12-20T06:25:10.762Z,-2.30
2018-12-20T06:27:39.510Z,-2.30
2018-12-20T06:30:08.515Z,-2.30
2018-12-20T06:32:37.129Z,-2.30
2018-12-20T06:35:05.800Z,-2.30
2018-12-20T06:37:34.463Z,-2.20
2018-12-20T06:40:03.245Z,-2.20
2018-12-20T06:42:31.847Z,-2.30
2018-12-20T06:45:00.417Z,-2.30
2018-12-20T06:47:29.007Z,-2.30
2018-12-20T06:49:57.629Z,-2.30
2018-12-20T06:52:26.209Z,-2.30
2018-12-20T06:54:54.819Z,-2.30
2018-12-20T06:57:23.495Z,-2.20
2018-12-20T06:59:52.100Z,-2.20
2018-12-20T07:02:20.655Z,-2.20
2018-12-20T07:04:49.293Z,-2.20
2018-12-20T07:07:17.873Z,-2.30
2018-12-20T07:09:46.443Z,-2.30
2018-12-20T07:12:15.077Z,-2.30
2018-12-20T07:14:43.692Z,-2.30
2018-12-20T07:17:12.275Z,-2.30
2018-12-20T07:19:40.885Z,-2.20
2018-12-20T07:22:09.535Z,-2.20
2018-12-20T07:24:38.790Z,-2.20
2018-12-20T07:27:07.392Z,-2.20
2018-12-20T07:29:35.977Z,-2.20
2018-12-20T07:32:04.692Z,-2.20
2018-12-20T07:34:47.822Z,-2.10
2018-12-20T07:37:12.142Z,-2.10
2018-12-20T07:39:40.736Z,-2.10
2018-12-20T07:42:09.351Z,-2.10
2018-12-20T07:44:37.962Z,-2.10
2018-12-20T07:47:06.559Z,-2.00
2018-12-20T07:49:35.151Z,-2.00
2018-12-20T07:52:03.733Z,-2.00
2018-12-20T07:54:32.427Z,-2.00
2018-12-20T07:57:01.459Z,-2.00
2018-12-20T07:59:30.038Z,-2.00
2018-12-20T08:02:06.017Z,-2.00
2018-12-20T08:04:34.592Z,-1.90
2018-12-20T08:07:03.204Z,-1.90
2018-12-20T08:09:31.943Z,-1.90
2018-12-20T08:12:00.528Z,-1.80
2018-12-20T08:14:29.104Z,-1.80
2018-12-20T08:16:57.876Z,-1.80
2018-12-20T08:19:26.445Z,-1.80
2018-12-20T08:21:55.036Z,-1.70
2018-12-20T08:24:23.668Z,-1.70
2018-12-20T08:26:52.230Z,-1.60
2018-12-20T08:29:20.777Z,-1.60
2018-12-20T08:31:50.378Z,-1.60
2018-12-20T08:34:18.949Z,-1.60
2018-12-20T08:36:47.526Z,-1.70
2018-12-20T08:39:16.224Z,-1.60
2018-12-20T08:41:44.793Z,-1.50
2018-12-20T08:44:13.851Z,-1.50
2018-12-20T08:46:44.606Z,-1.50
2018-12-20T08:49:13.235Z,-1.50
2018-12-20T08:51:48.853Z,-1.50
2018-12-20T08:54:12.469Z,-1.50
2018-12-20T08:56:42.065Z,-1.50
2018-12-20T08:59:10.761Z,-1.40
2018-12-20T09:01:39.358Z,-1.40
2018-12-20T09:04:07.956Z,-1.40
2018-12-20T09:06:36.580Z,-1.40
2018-12-20T09:09:07.150Z,-1.40
2018-12-20T09:11:35.731Z,-1.30
2018-12-20T09:14:04.382Z,-1.40
2018-12-20T09:16:40.852Z,-1.30
2018-12-20T09:19:09.540Z,-1.30
2018-12-20T09:21:38.153Z,-1.20
2018-12-20T09:24:06.840Z,-1.30
2018-12-20T09:26:35.433Z,-1.30
2018-12-20T09:29:04.070Z,-1.30
2018-12-20T09:31:32.680Z,-1.20
2018-12-20T09:34:01.273Z,-1.30
2018-12-20T09:36:29.912Z,-1.30
2018-12-20T09:38:58.676Z,-1.30
2018-12-20T09:41:27.374Z,-1.20
2018-12-20T09:43:55.973Z,-1.10
2018-12-20T09:46:24.602Z,-1.00
2018-12-20T09:48:53.139Z,-1.10
2018-12-20T09:51:21.712Z,-0.90
2018-12-20T09:53:51.401Z,-0.90
2018-12-20T09:56:20.020Z,-0.90
2018-12-20T09:58:48.714Z,-0.80
2018-12-20T10:01:17.333Z,-0.80
2018-12-20T10:03:45.912Z,-0.90
2018-12-20T10:06:14.574Z,-0.90
2018-12-20T10:08:43.342Z,-0.80
2018-12-20T10:11:11.907Z,-0.70
2018-12-20T10:13:40.515Z,-0.70
2018-12-20T10:16:09.240Z,-0.80
2018-12-20T10:18:37.811Z,-0.70
2018-12-20T10:21:06.567Z,-0.70
2018-12-20T10:23:35.168Z,-0.70
2018-12-20T10:26:04.047Z,-0.70
2018-12-20T10:28:32.781Z,-0.70
2018-12-20T10:31:08.407Z,-0.80
2018-12-20T10:33:37.005Z,-0.90
2018-12-20T10:36:05.598Z,-1.00
2018-12-20T10:38:34.260Z,-0.90
2018-12-20T10:41:02.857Z,-1.00
2018-12-20T10:43:31.481Z,-1.00
2018-12-20T10:46:00.086Z,-1.00
2018-12-20T10:48:28.699Z,-1.00
2018-12-20T10:50:57.283Z,-1.00
2018-12-20T10:53:25.879Z,-1.00
2018-12-20T10:55:54.550Z,-1.00
2018-12-20T10:58:33.473Z,-1.00
2018-12-20T11:01:07.455Z,-1.10
2018-12-20T11:03:41.373Z,-1.10
2018-12-20T11:06:15.318Z,-1.00
2018-12-20T11:08:49.190Z,-1.10
2018-12-20T11:11:20.928Z,-1.00
2018-12-20T11:13:50.301Z,-1.00
2018-12-20T11:16:18.945Z,-1.00
2018-12-20T11:18:47.542Z,-1.00
2018-12-20T11:21:16.212Z,-0.90
2018-12-20T11:23:44.875Z,-0.90
2018-12-20T11:26:13.487Z,-0.90
2018-12-20T11:28:42.089Z,-0.80
2018-12-20T11:31:11.072Z,-0.90
2018-12-20T11:33:39.875Z,-0.90
2018-12-20T11:36:08.616Z,-0.90
2018-12-20T11:38:37.226Z,-0.90
2018-12-20T11:41:05.810Z,-0.80
2018-12-20T11:43:34.444Z,-0.80
2018-12-20T11:46:03.058Z,-0.90
2018-12-20T11:48:31.657Z,-0.90
2018-12-20T11:51:00.306Z,-0.90
2018-12-20T11:53:28.880Z,-0.90
2018-12-20T11:55:57.514Z,-0.90
2018-12-20T11:58:26.158Z,-0.90
2018-12-20T12:00:54.737Z,-1.00
2018-12-20T12:03:23.381Z,-0.90
2018-12-20T12:05:52.128Z,-1.00
2018-12-20T12:08:20.703Z,-0.90
2018-12-20T12:10:49.291Z,-0.90
2018-12-20T12:13:17.910Z,-0.90
2018-12-20T12:15:46.505Z,-0.80
2018-12-20T12:18:15.123Z,-0.90
2018-12-20T12:20:43.799Z,-0.90
2018-12-20T12:23:12.502Z,-0.90
2018-12-20T12:25:41.121Z,-0.90
2018-12-20T12:28:09.813Z,-0.90
2018-12-20T12:30:38.434Z,-0.90
2018-12-20T12:33:07.161Z,-0.90
2018-12-20T12:35:35.855Z,-0.90
2018-12-20T12:38:04.618Z,-0.90
2018-12-20T12:40:33.246Z,-0.90
2018-12-20T12:43:01.905Z,-0.90
2018-12-20T12:45:30.779Z,-1.00
2018-12-20T12:48:03.659Z,-1.00
2018-12-20T12:50:31.593Z,-1.00
2018-12-20T12:53:00.230Z,-1.00
2018-12-20T12:55:28.964Z,-1.00
2018-12-20T12:58:04.616Z,-1.00
2018-12-20T13:00:28.261Z,-1.00
2018-12-20T13:02:56.908Z,-1.00
2018-12-20T13:05:25.591Z,-1.00
2018-12-20T13:07:59.413Z,-1.00
2018-12-20T13:10:28.008Z,-1.10
2018-12-20T13:12:56.586Z,-1.10
2018-12-20T13:15:26.029Z,-1.20
2018-12-20T13:17:55.343Z,-1.10
2018-12-20T13:20:23.958Z,-1.20
2018-12-20T13:22:52.587Z,-1.10
2018-12-20T13:25:21.299Z,-1.10
2018-12-20T13:27:50.021Z,-1.20
2018-12-20T13:30:18.703Z,-1.10
2018-12-20T13:32:51.260Z,-1.20
2018-12-20T13:35:19.886Z,-1.10
2018-12-20T13:37:48.489Z,-1.10
2018-12-20T13:40:17.103Z,-1.10
2018-12-20T13:42:47.749Z,-1.10
2018-12-20T13:45:16.372Z,-1.20
2018-12-20T13:47:45.008Z,-1.20
2018-12-20T13:50:18.756Z,-1.20
2018-12-20T13:52:47.368Z,-1.20
2018-12-20T13:55:15.964Z,-1.20
2018-12-20T13:57:44.600Z,-1.30
2018-12-20T14:00:15.534Z,-1.20
2018-12-20T14:02:44.727Z,-1.20
2018-12-20T14:05:13.388Z,-1.20
2018-12-20T14:07:42.062Z,-1.30
2018-12-20T14:10:18.386Z,-1.20
2018-12-20T14:12:46.970Z,-1.30
2018-12-20T14:15:15.589Z,-1.30
2018-12-20T14:17:44.263Z,-1.30
2018-12-20T14:20:12.932Z,-1.30
2018-12-20T14:22:41.547Z,-1.30
2018-12-20T14:25:10.217Z,-1.30
2018-12-20T14:27:39.014Z,-1.40
2018-12-20T14:30:10.163Z,-1.40
2018-12-20T14:32:38.838Z,-1.40
2018-12-20T14:35:07.848Z,-1.40
2018-12-20T14:37:43.657Z,-1.40
2018-12-20T14:40:12.500Z,-1.50
2018-12-20T14:42:41.111Z,-1.40
2018-12-20T14:45:09.901Z,-1.40
2018-12-20T14:47:38.675Z,-1.50
2018-12-20T14:50:17.761Z,-1.50
2018-12-20T14:52:46.966Z,-1.50
2018-12-20T14:55:19.451Z,-1.60
2018-12-20T14:57:48.325Z,-1.60
2018-12-20T15:00:17.813Z,-1.60
2018-12-20T15:02:46.674Z,-1.60
2018-12-20T15:05:30.669Z,-1.60
2018-12-20T15:07:59.479Z,-1.60
2018-12-20T15:10:30.304Z,-1.60
2018-12-20T15:12:59.344Z,-1.60
2018-12-20T15:15:28.314Z,-1.70
2018-12-20T15:17:58.043Z,-1.70
2018-12-20T15:20:26.921Z,-1.70
2018-12-20T15:22:56.251Z,-1.70
2018-12-20T15:25:24.962Z,-1.70
2018-12-20T15:27:54.561Z,-1.70
2018-12-20T15:30:23.473Z,-1.70
2018-12-20T15:32:52.424Z,-1.70
2018-12-20T15:35:25.187Z,-1.70
2018-12-20T15:37:54.655Z,-1.70
2018-12-20T15:40:23.405Z,-1.80
2018-12-20T15:42:52.835Z,-1.80
2018-12-20T15:45:27.262Z,-1.70
2018-12-20T15:47:55.993Z,-1.70
2018-12-20T15:50:40.150Z,-1.70
2018-12-20T15:53:09.341Z,-1.70
2018-12-20T15:55:39.685Z,-1.70
2018-12-20T15:58:08.578Z,-1.70
2018-12-20T16:00:37.297Z,-1.70
2018-12-20T16:03:06.029Z,-1.80
2018-12-20T16:05:35.396Z,-1.80
2018-12-20T16:08:07.561Z,-1.80
2018-12-20T16:10:37.386Z,-1.80
2018-12-20T16:13:06.265Z,-1.80
2018-12-20T16:15:35.038Z,-1.80
2018-12-20T16:18:04.212Z,-1.80
2018-12-20T16:20:32.974Z,-1.80
2018-12-20T16:23:01.828Z,-1.90
2018-12-20T16:25:30.883Z,-1.90
2018-12-20T16:28:00.362Z,-1.80
2018-12-20T16:30:29.121Z,-1.90
2018-12-20T16:32:57.841Z,-1.90
2018-12-20T16:35:26.601Z,-1.80
2018-12-20T16:37:55.272Z,-1.80
2018-12-20T16:40:23.971Z,-1.80
2018-12-20T16:42:52.637Z,-1.90
2018-12-20T16:45:21.970Z,-1.90
2018-12-20T16:47:50.586Z,-1.90
2018-12-20T16:50:19.319Z,-1.90
2018-12-20T16:52:47.995Z,-1.90
2018-12-20T16:55:17.388Z,-1.90
2018-12-20T16:57:46.056Z,-1.90
2018-12-20T17:00:14.896Z,-1.90
2018-12-20T17:02:51.642Z,-2.00
2018-12-20T17:05:20.341Z,-2.00
2018-12-20T17:07:49.113Z,-2.10
2018-12-20T17:10:18.046Z,-2.00
2018-12-20T17:12:46.875Z,-2.10
2018-12-20T17:15:17.658Z,-2.10
2018-12-20T17:17:46.340Z,-2.10
2018-12-20T17:20:15.821Z,-2.10
2018-12-20T17:22:44.562Z,-2.10
2018-12-20T17:25:14.188Z,-2.10
2018-12-20T17:27:44.207Z,-2.10
2018-12-20T17:30:13.077Z,-2.20
2018-12-20T17:32:42.117Z,-2.20
2018-12-20T17:35:10.878Z,-2.20
2018-12-20T17:37:39.460Z,-2.30
2018-12-20T17:40:08.782Z,-2.30
2018-12-20T17:42:37.448Z,-2.30
2018-12-20T17:45:07.533Z,-2.30
2018-12-20T17:47:36.518Z,-2.40
2018-12-20T17:50:06.588Z,-2.30
2018-12-20T17:52:37.380Z,-2.30
2018-12-20T17:55:06.267Z,-2.30
2018-12-20T17:57:35.076Z,-2.40
2018-12-20T18:00:04.381Z,-2.30
2018-12-20T18:02:33.278Z,-2.40
2018-12-20T18:05:06.971Z,-2.40
2018-12-20T18:07:32.635Z,-2.40
2018-12-20T18:10:01.280Z,-2.40
2018-12-20T18:12:30.156Z,-2.40
2018-12-20T18:14:58.873Z,-2.40
2018-12-20T18:17:31.548Z,-2.40
2018-12-20T18:20:00.299Z,-2.40
2018-12-20T18:22:29.077Z,-2.40
2018-12-20T18:24:58.683Z,-2.30
2018-12-20T18:27:35.448Z,-2.30
2018-12-20T18:30:05.969Z,-2.30
2018-12-20T18:32:34.714Z,-2.30
2018-12-20T18:35:03.470Z,-2.30
2018-12-20T18:37:32.279Z,-2.30
2018-12-20T18:40:01.764Z,-2.30
2018-12-20T18:42:30.997Z,-2.30
2018-12-20T18:45:00.193Z,-2.30
2018-12-20T18:47:28.889Z,-2.30
2018-12-20T18:50:01.702Z,-2.40
2018-12-20T18:52:30.437Z,-2.30
2018-12-20T18:54:59.183Z,-2.30
2018-12-20T18:57:28.430Z,-2.40
2018-12-20T18:59:57.049Z,-2.40
2018-12-20T19:02:25.806Z,-2.40
2018-12-20T19:04:54.556Z,-2.40
2018-12-20T19:07:23.325Z,-2.40
2018-12-20T19:09:54.027Z,-2.40
2018-12-20T19:12:22.661Z,-2.40
2018-12-20T19:14:52.091Z,-2.40
2018-12-20T19:17:23.957Z,-2.40
2018-12-20T19:19:56.364Z,-2.40
2018-12-20T19:22:23.398Z,-2.40
2018-12-20T19:24:52.271Z,-2.40
2018-12-20T19:27:21.066Z,-2.30
2018-12-20T19:29:50.446Z,-2.30
2018-12-20T19:32:19.265Z,-2.30
2018-12-20T19:34:48.510Z,-2.40
2018-12-20T19:37:17.828Z,-2.40
2018-12-20T19:39:48.872Z,-2.40
2018-12-20T19:42:17.559Z,-2.40
2018-12-20T19:44:46.360Z,-2.40
2018-12-20T19:47:15.132Z,-2.30
2018-12-20T19:49:44.978Z,-2.30
2018-12-20T19:52:13.733Z,-2.40
2018-12-20T19:54:47.958Z,-2.30
2018-12-20T19:57:13.106Z,-2.30
2018-12-20T19:59:41.844Z,-2.30
2018-12-20T20:02:10.517Z,-2.20
2018-12-20T20:04:40.149Z,-2.20
2018-12-20T20:07:09.363Z,-2.20
2018-12-20T20:09:38.304Z,-2.20
2018-12-20T20:12:07.149Z,-2.20
2018-12-20T20:14:35.765Z,-2.20
2018-12-20T20:17:04.448Z,-2.20
2018-12-20T20:19:37.772Z,-2.10
2018-12-20T20:22:06.519Z,-2.10
2018-12-20T20:24:38.784Z,-2.10
2018-12-20T20:27:08.293Z,-2.20
2018-12-20T20:29:36.957Z,-2.20
2018-12-20T20:32:05.673Z,-2.10
2018-12-20T20:34:34.337Z,-2.20
2018-12-20T20:37:03.839Z,-2.10
2018-12-20T20:39:42.944Z,-2.10
2018-12-20T20:42:12.024Z,-2.10
2018-12-20T20:44:41.353Z,-2.10
2018-12-20T20:47:10.701Z,-2.00
2018-12-20T20:49:46.640Z,-2.00
2018-12-20T20:52:15.520Z,-2.00
2018-12-20T20:54:44.189Z,-2.00
2018-12-20T20:57:12.812Z,-2.10
2018-12-20T20:59:41.588Z,-2.10
2018-12-20T21:02:10.440Z,-2.10
2018-12-20T21:04:39.144Z,-2.10
2018-12-20T21:07:07.928Z,-2.10
2018-12-20T21:09:36.696Z,-2.10
2018-12-20T21:12:05.748Z,-2.10
2018-12-20T21:14:34.549Z,-2.10
2018-12-20T21:17:03.301Z,-2.10
2018-12-20T21:19:32.063Z,-2.10
2018-12-20T21:22:00.796Z,-2.00
2018-12-20T21:24:29.588Z,-2.00
2018-12-20T21:26:58.812Z,-2.00
2018-12-20T21:29:27.524Z,-2.00
2018-12-20T21:31:56.292Z,-2.10
2018-12-20T21:34:27.082Z,-2.00
2018-12-20T21:36:55.863Z,-2.00
2018-12-20T21:39:24.616Z,-2.00
2018-12-20T21:41:53.381Z,-2.00
2018-12-20T21:44:22.151Z,-2.00
2018-12-20T21:46:50.910Z,-2.00
2018-12-20T21:49:20.935Z,-2.00
2018-12-20T21:51:49.693Z,-2.00
2018-12-20T21:54:18.343Z,-2.00
2018-12-20T21:56:47.215Z,-2.00
2018-12-20T21:59:16.062Z,-2.00
2018-12-20T22:01:45.559Z,-2.00
2018-12-20T22:04:14.840Z,-2.00
2018-12-20T22:06:43.867Z,-2.00
2018-12-20T22:09:13.278Z,-2.00
2018-12-20T22:11:42.231Z,-2.00
2018-12-20T22:14:19.291Z,-2.00
2018-12-20T22:16:48.045Z,-2.00
2018-12-20T22:19:16.774Z,-2.00
2018-12-20T22:21:45.862Z,-2.00
2018-12-20T22:24:15.286Z,-2.00
2018-12-20T22:26:44.218Z,-2.00
2018-12-20T22:29:14.125Z,-1.90
2018-12-20T22:31:42.817Z,-1.90
2018-12-20T22:34:12.070Z,-1.90
2018-12-20T22:36:40.873Z,-1.90
2018-12-20T22:39:10.597Z,-1.90
2018-12-20T22:41:39.298Z,-1.90
2018-12-20T22:44:08.518Z,-1.90
2018-12-20T22:46:37.322Z,-1.80
2018-12-20T22:49:06.331Z,-1.80
2018-12-20T22:51:35.021Z,-1.80
2018-12-20T22:54:03.771Z,-1.80
2018-12-20T22:56:32.516Z,-1.80
2018-12-20T22:59:01.268Z,-1.80
2018-12-20T23:01:31.648Z,-1.80
2018-12-20T23:04:00.311Z,-1.80
2018-12-20T23:06:29.015Z,-1.80
2018-12-20T23:08:57.877Z,-1.80
2018-12-20T23:11:26.506Z,-1.80
2018-12-20T23:13:55.799Z,-1.80
2018-12-20T23:16:24.491Z,-1.80
2018-12-20T23:18:53.131Z,-1.80
2018-12-20T23:21:22.356Z,-1.80
2018-12-20T23:23:51.210Z,-1.90
2018-12-20T23:26:19.965Z,-1.90
2018-12-20T23:28:49.232Z,-1.80
2018-12-20T23:31:18.082Z,-1.80
2018-12-20T23:33:47.521Z,-1.80
2018-12-20T23:36:16.994Z,-1.80
2018-12-20T23:38:46.020Z,-1.80
2018-12-20T23:41:15.358Z,-1.80
2018-12-20T23:43:44.248Z,-1.80
2018-12-20T23:46:13.714Z,-1.70
2018-12-20T23:48:43.178Z,-1.70
2018-12-20T23:51:13.843Z,-1.70
2018-12-20T23:53:42.818Z,-1.70
2018-12-20T23:56:11.575Z,-1.60
2018-12-20T23:58:40.198Z,-1.70
